| time (UTC) | temp F | wind direction | speed knots | gust knots | rain 1hr in | rain 24hr in | rain mn in | humidity % | barometer mb |
| 20260902144018 | 81 | 277 | 0.9 | 6.1 | 0.00 | 0.00 | 0.00 | 41 | 1020.5 |
| 20260902143517 | 81 | 306 | 0.9 | 6.1 | 0.00 | 0.00 | 0.00 | 42 | 1020.5 |
| 20260902143505 | 81 | 291 | 0.9 | 8.7 | 0.00 | 0.00 | 0.00 | 41 | 1020.4 |
| 20260902142518 | 81 | 281 | 0.9 | 8.7 | 0.00 | 0.00 | 0.00 | 41 | 1020.5 |
| 20260902142017 | 81 | 277 | 0.9 | 7.8 | 0.00 | 0.00 | 0.00 | 40 | 1020.5 |
| 20260902141517 | 81 | 277 | 0.9 | 7.8 | 0.00 | 0.00 | 0.00 | 40 | 1020.4 |
| 20260902141017 | 81 | 257 | 0.9 | 8.7 | 0.00 | 0.00 | 0.00 | 40 | 1020.5 |
| 20260902140518 | 82 | 254 | 1.7 | 8.7 | 0.00 | 0.00 | 0.00 | 39 | 1020.5 |
| 20260902140239 | 82 | 271 | 0.9 | 7.0 | 0.00 | 0.00 | 0.00 | 39 | 1020.5 |
| 20260902135516 | 82 | 276 | 0.9 | 5.2 | 0.00 | 0.00 | 0.00 | 40 | 1020.5 |
| 20260902135016 | 82 | 273 | 0.9 | 5.2 | 0.00 | 0.00 | 0.00 | 38 | 1020.6 |
| 20260902134518 | 82 | 272 | 0.9 | 7.0 | 0.00 | 0.00 | 0.00 | 39 | 1020.5 |
| 20260902134014 | 82 | 270 | 0.0 | 7.0 | 0.00 | 0.00 | 0.00 | 37 | 1020.5 |
| 20260902133516 | 82 | 271 | 0.0 | 4.3 | 0.00 | 0.00 | 0.00 | 38 | 1020.5 |
| 20260902133247 | 82 | 271 | 0.9 | 5.2 | 0.00 | 0.00 | 0.00 | 37 | 1020.6 |
| 20260902132515 | 82 | 270 | 1.7 | 6.1 | 0.00 | 0.00 | 0.00 | 37 | 1020.6 |
| 20260902132015 | 81 | 275 | 1.7 | 7.0 | 0.00 | 0.00 | 0.00 | 38 | 1020.7 |
| 20260902131515 | 82 | 269 | 0.9 | 7.0 | 0.00 | 0.00 | 0.00 | 37 | 1020.8 |
| 20260902131009 | 82 | 259 | 0.0 | 4.3 | 0.00 | 0.00 | 0.00 | 38 | 1020.7 |
| 20260902130503 | 81 | 256 | 0.9 | 6.1 | 0.00 | 0.00 | 0.00 | 37 | 1020.9 |
| 20260902125957 | 81 | 298 | 0.9 | 6.1 | 0.00 | 0.00 | 0.00 | 38 | 1020.8 |
| 20260902125451 | 80 | 303 | 0.9 | 6.1 | 0.00 | 0.00 | 0.00 | 37 | 1020.8 |
| 20260902124946 | 80 | 306 | 0.9 | 6.1 | 0.00 | 0.00 | 0.00 | 40 | 1020.9 |
| 20260902124439 | 80 | 269 | 0.9 | 6.1 | 0.00 | 0.00 | 0.00 | 40 | 1020.9 |
| 20260902123933 | 80 | 273 | 0.9 | 6.1 | 0.00 | 0.00 | 0.00 | 39 | 1020.9 |
| 20260902123427 | 80 | 284 | 1.7 | 7.8 | 0.00 | 0.00 | 0.00 | 38 | 1020.9 |
| 20260902122920 | 80 | 256 | 1.7 | 7.8 | 0.00 | 0.00 | 0.00 | 40 | 1020.9 |
| 20260902122415 | 80 | 279 | 0.9 | 5.2 | 0.00 | 0.00 | 0.00 | 40 | 1020.9 |
| 20260902121909 | 79 | 269 | 1.7 | 6.1 | 0.00 | 0.00 | 0.00 | 42 | 1020.9 |
| 20260902121850 | 80 | 269 | 0.9 | 6.1 | 0.00 | 0.00 | 0.00 | 39 | 1020.9 |
| 20260902120857 | 80 | 295 | 0.9 | 6.1 | 0.00 | 0.00 | 0.00 | 41 | 1021.0 |
| 20260902120351 | 80 | 37 | 0.9 | 6.1 | 0.00 | 0.00 | 0.00 | 42 | 1021.0 |
| 20260902115845 | 79 | 285 | 0.0 | 5.2 | 0.00 | 0.00 | 0.00 | 40 | 1021.1 |
| 20260902115338 | 79 | 286 | 0.9 | 6.1 | 0.00 | 0.00 | 0.00 | 39 | 1021.0 |
| 20260902114831 | 79 | 283 | 1.7 | 7.0 | 0.00 | 0.00 | 0.00 | 42 | 1021.0 |
| 20260902114324 | 79 | 273 | 1.7 | 7.0 | 0.00 | 0.00 | 0.00 | 40 | 1021.1 |
| 20260902113819 | 79 | 255 | 0.9 | 6.1 | 0.00 | 0.00 | 0.00 | 40 | 1021.1 |
| 20260902113800 | 79 | 214 | 0.9 | 5.2 | 0.00 | 0.00 | 0.00 | 41 | 1021.2 |
| 20260902112808 | 78 | 268 | 0.9 | 5.2 | 0.00 | 0.00 | 0.00 | 40 | 1021.3 |
| 20260902112305 | 78 | 253 | 0.9 | 7.8 | 0.00 | 0.00 | 0.00 | 40 | 1021.3 |
| 20260902111755 | 78 | 254 | 0.9 | 8.7 | 0.00 | 0.00 | 0.00 | 41 | 1021.4 |
| 20260902111249 | 78 | 277 | 0.9 | 8.7 | 0.00 | 0.00 | 0.00 | 40 | 1021.5 |
| 20260902110743 | 78 | 271 | 2.6 | 11.3 | 0.00 | 0.00 | 0.00 | 42 | 1021.4 |
| 20260902110237 | 78 | 275 | 2.6 | 11.3 | 0.00 | 0.00 | 0.00 | 42 | 1021.5 |
| 20260902105731 | 78 | 190 | 2.6 | 7.0 | 0.00 | 0.00 | 0.00 | 41 | 1021.5 |
| 20260902105225 | 78 | 248 | 1.7 | 7.0 | 0.00 | 0.00 | 0.00 | 40 | 1021.5 |
| 20260902104719 | 78 | 256 | 1.7 | 7.0 | 0.00 | 0.00 | 0.00 | 44 | 1021.6 |
| 20260902104213 | 78 | 270 | 1.7 | 7.0 | 0.00 | 0.00 | 0.00 | 45 | 1021.7 |
| 20260902103707 | 77 | 257 | 0.9 | 6.1 | 0.00 | 0.00 | 0.00 | 46 | 1021.6 |
| 20260902103201 | 78 | 284 | 0.9 | 7.0 | 0.00 | 0.00 | 0.00 | 44 | 1021.7 |
| 20260902103152 | 78 | 284 | 1.7 | 7.0 | 0.00 | 0.00 | 0.00 | 44 | 1021.8 |
| 20260902102149 | 78 | 268 | 0.9 | 5.2 | 0.00 | 0.00 | 0.00 | 47 | 1021.8 |
| 20260902101642 | 78 | 255 | 0.9 | 4.3 | 0.00 | 0.00 | 0.00 | 48 | 1021.8 |
| 20260902101137 | 77 | 256 | 0.9 | 4.3 | 0.00 | 0.00 | 0.00 | 48 | 1021.8 |
| 20260902100932 | 77 | 251 | 0.0 | 3.5 | 0.00 | 0.00 | 0.00 | 49 | 1021.8 |
| 20260902100901 | 76 | 241 | 0.0 | 0.0 | 0.00 | 0.00 | 0.00 | 51 | 1021.8 |
| 20260902095618 | 75 | 309 | 0.0 | 0.0 | 0.00 | 0.00 | 0.00 | 54 | 1021.8 |
| 20260902095113 | 74 | 311 | 0.0 | 0.0 | 0.00 | 0.00 | 0.00 | 56 | 1021.9 |
| 20260902094607 | 74 | 310 | 0.0 | 0.0 | 0.00 | 0.00 | 0.00 | 56 | 1021.9 |
| 20260902094320 | 73 | 311 | 0.0 | 0.0 | 0.00 | 0.00 | 0.00 | 59 | 1022.0 |
| 20260902093556 | 72 | 311 | 0.0 | 0.0 | 0.00 | 0.00 | 0.00 | 59 | 1022.1 |
| 20260902093049 | 72 | 311 | 0.0 | 0.0 | 0.00 | 0.00 | 0.00 | 62 | 1022.2 |
| 20260902092542 | 71 | 294 | 0.0 | 0.0 | 0.00 | 0.00 | 0.00 | 64 | 1022.1 |
| 20260902092037 | 70 | 293 | 0.0 | 0.0 | 0.00 | 0.00 | 0.00 | 63 | 1022.2 |
| 20260902091531 | 69 | 294 | 0.0 | 0.0 | 0.00 | 0.00 | 0.00 | 67 | 1022.1 |
| 20260902091025 | 68 | 292 | 0.0 | 0.0 | 0.00 | 0.00 | 0.00 | 66 | 1022.2 |
| 20260902090519 | 68 | 293 | 0.0 | 0.0 | 0.00 | 0.00 | 0.00 | 68 | 1022.1 |
| 20260902090013 | 67 | 293 | 0.0 | 0.0 | 0.00 | 0.00 | 0.00 | 68 | 1022.1 |
| 20260902085507 | 67 | 34 | 0.0 | 0.0 | 0.00 | 0.00 | 0.00 | 66 | 1022.0 |
| 20260902085000 | 66 | 34 | 0.0 | 0.0 | 0.00 | 0.00 | 0.00 | 70 | 1022.1 |
| 20260902084456 | 66 | 239 | 0.0 | 0.0 | 0.00 | 0.00 | 0.00 | 70 | 1022.3 |
| 20260902083948 | 65 | 198 | 0.0 | 0.0 | 0.00 | 0.00 | 0.00 | 72 | 1022.1 |
| 20260902083756 | 65 | 198 | 0.0 | 0.0 | 0.00 | 0.00 | 0.00 | 71 | 1021.9 |
| 20260902083714 | 65 | 198 | 0.0 | 0.0 | 0.00 | 0.00 | 0.00 | 70 | 1021.8 |
| 20260902082431 | 65 | 198 | 0.0 | 0.0 | 0.00 | 0.00 | 0.00 | 69 | 1022.0 |
| 20260902081925 | 64 | 198 | 0.0 | 0.0 | 0.00 | 0.00 | 0.00 | 67 | 1022.0 |
| 20260902081419 | 64 | 198 | 0.0 | 0.0 | 0.00 | 0.00 | 0.00 | 69 | 1021.9 |
| 20260902080913 | 63 | 198 | 0.0 | 0.0 | 0.00 | 0.00 | 0.00 | 73 | 1021.7 |
| 20260902080406 | 62 | 198 | 0.0 | 0.0 | 0.00 | 0.00 | 0.00 | 74 | 1021.8 |
| 20260902080340 | 61 | 198 | 0.0 | 0.0 | 0.00 | 0.00 | 0.00 | 77 | 1021.9 |
| 20260902075355 | 60 | 198 | 0.0 | 0.0 | 0.00 | 0.00 | 0.00 | 78 | 1021.8 |
| 20260902074849 | 60 | 198 | 0.0 | 0.0 | 0.00 | 0.00 | 0.00 | 76 | 1021.8 |
| 20260902074343 | 60 | 198 | 0.0 | 0.0 | 0.00 | 0.00 | 0.00 | 77 | 1021.7 |
| 20260902073837 | 60 | 198 | 0.0 | 0.0 | 0.00 | 0.00 | 0.00 | 78 | 1021.7 |
| 20260902073331 | 59 | 198 | 0.0 | 0.0 | 0.00 | 0.00 | 0.00 | 80 | 1021.7 |
| 20260902072825 | 58 | 198 | 0.0 | 0.0 | 0.00 | 0.00 | 0.00 | 80 | 1021.6 |
| 20260902072320 | 58 | 198 | 0.0 | 0.0 | 0.00 | 0.00 | 0.00 | 81 | 1021.6 |
| 20260902071814 | 58 | 198 | 0.0 | 0.0 | 0.00 | 0.00 | 0.00 | 80 | 1021.5 |
| 20260902071307 | 57 | 198 | 0.0 | 0.0 | 0.00 | 0.00 | 0.00 | 83 | 1021.5 |
| 20260902070801 | 57 | 198 | 0.0 | 0.0 | 0.00 | 0.00 | 0.00 | 83 | 1021.6 |
| 20260902070255 | 56 | 198 | 0.0 | 0.0 | 0.00 | 0.00 | 0.00 | 86 | 1021.6 |
| 20260902065749 | 55 | 198 | 0.0 | 0.0 | 0.00 | 0.00 | 0.00 | 87 | 1021.6 |
| 20260902065243 | 54 | 198 | 0.0 | 0.0 | 0.00 | 0.00 | 0.00 | 87 | 1021.7 |
| 20260902064737 | 54 | 198 | 0.0 | 0.0 | 0.00 | 0.00 | 0.00 | 88 | 1021.7 |
| 20260902064231 | 53 | 198 | 0.0 | 0.0 | 0.00 | 0.00 | 0.00 | 88 | 1021.8 |
| 20260902063725 | 53 | 198 | 0.0 | 0.0 | 0.00 | 0.00 | 0.00 | 89 | 1021.8 |
| 20260902063218 | 53 | 198 | 0.0 | 0.0 | 0.00 | 0.00 | 0.00 | 90 | 1021.7 |
| 20260902062713 | 52 | 198 | 0.0 | 0.0 | 0.00 | 0.00 | 0.00 | 89 | 1021.7 |
| 20260902062207 | 52 | 198 | 0.0 | 0.0 | 0.00 | 0.00 | 0.00 | 89 | 1021.7 |
| 20260902061701 | 52 | 198 | 0.0 | 0.0 | 0.00 | 0.00 | 0.00 | 89 | 1021.7 |
| 20260902061155 | 52 | 198 | 0.0 | 0.0 | 0.00 | 0.00 | 0.00 | 89 | 1021.7 |
| 20260902060651 | 52 | 198 | 0.0 | 0.0 | 0.00 | 0.00 | 0.00 | 89 | 1021.7 |
| 20260902060152 | 52 | 198 | 0.0 | 0.0 | 0.00 | 0.00 | 0.00 | 89 | 1021.8 |
| 20260902055652 | 52 | 198 | 0.0 | 0.0 | 0.00 | 0.00 | 0.00 | 90 | 1021.8 |
| 20260902055153 | 52 | 198 | 0.0 | 0.0 | 0.00 | 0.00 | 0.00 | 91 | 1021.8 |
| 20260902054650 | 51 | 198 | 0.0 | 0.0 | 0.00 | 0.00 | 0.00 | 91 | 1021.7 |
| 20260902054148 | 51 | 198 | 0.0 | 0.0 | 0.00 | 0.00 | 0.00 | 91 | 1021.8 |
| 20260902053649 | 51 | 198 | 0.0 | 0.0 | 0.00 | 0.00 | 0.00 | 91 | 1021.7 |
| 20260902053638 | 51 | 198 | 0.0 | 0.0 | 0.00 | 0.00 | 0.00 | 90 | 1021.7 |
| 20260902052647 | 51 | 198 | 0.0 | 0.0 | 0.00 | 0.00 | 0.00 | 90 | 1021.7 |
| 20260902052411 | 51 | 198 | 0.0 | 0.0 | 0.00 | 0.00 | 0.00 | 90 | 1021.7 |
| 20260902051645 | 51 | 198 | 0.0 | 0.0 | 0.00 | 0.00 | 0.00 | 90 | 1021.7 |
| 20260902051144 | 51 | 198 | 0.0 | 0.0 | 0.00 | 0.00 | 0.00 | 90 | 1021.6 |
| 20260902050643 | 51 | 198 | 0.0 | 0.0 | 0.00 | 0.00 | 0.00 | 90 | 1021.5 |
| 20260902050141 | 51 | 198 | 0.0 | 0.0 | 0.00 | 0.00 | 0.00 | 90 | 1021.5 |
| 20260902045638 | 51 | 198 | 0.0 | 0.0 | 0.00 | 0.00 | 0.00 | 91 | 1021.4 |
| 20260902045139 | 51 | 198 | 0.0 | 0.0 | 0.00 | 0.00 | 0.00 | 91 | 1021.3 |
| 20260902044636 | 51 | 198 | 0.0 | 0.0 | 0.00 | 0.00 | 0.00 | 90 | 1021.4 |
| 20260902044137 | 51 | 198 | 0.0 | 0.0 | 0.00 | 0.00 | 0.00 | 90 | 1021.4 |
| 20260902044112 | 51 | 198 | 0.0 | 0.0 | 0.00 | 0.00 | 0.00 | 90 | 1021.5 |
| 20260902043131 | 51 | 198 | 0.0 | 0.0 | 0.00 | 0.00 | 0.00 | 89 | 1021.5 |
| 20260902042632 | 51 | 198 | 0.0 | 0.0 | 0.00 | 0.00 | 0.00 | 90 | 1021.4 |
| 20260902042133 | 51 | 198 | 0.0 | 0.0 | 0.00 | 0.00 | 0.00 | 90 | 1021.5 |
| 20260902042115 | 51 | 198 | 0.0 | 0.0 | 0.00 | 0.00 | 0.00 | 89 | 1021.4 |
| 20260902041133 | 51 | 198 | 0.0 | 0.0 | 0.00 | 0.00 | 0.00 | 89 | 1021.3 |
| 20260902040634 | 51 | 198 | 0.0 | 0.0 | 0.00 | 0.00 | 0.00 | 89 | 1021.3 |
| 20260902040133 | 51 | 198 | 0.0 | 0.0 | 0.00 | 0.00 | 0.00 | 89 | 1021.3 |
| 20260902035634 | 51 | 198 | 0.0 | 0.0 | 0.00 | 0.00 | 0.00 | 89 | 1021.3 |
| 20260902035618 | 52 | 198 | 0.0 | 0.0 | 0.00 | 0.00 | 0.00 | 89 | 1021.3 |
| 20260902034631 | 52 | 198 | 0.0 | 0.0 | 0.00 | 0.00 | 0.00 | 90 | 1021.3 |
| 20260902034128 | 52 | 198 | 0.0 | 0.0 | 0.00 | 0.00 | 0.00 | 90 | 1021.3 |
| 20260902033629 | 51 | 198 | 0.0 | 0.0 | 0.00 | 0.00 | 0.00 | 89 | 1021.3 |
| 20260902033445 | 52 | 198 | 0.0 | 0.0 | 0.00 | 0.00 | 0.00 | 89 | 1021.4 |
| 20260902033403 | 52 | 198 | 0.0 | 0.0 | 0.00 | 0.00 | 0.00 | 89 | 1021.4 |
| 20260902032129 | 52 | 198 | 0.0 | 0.0 | 0.00 | 0.00 | 0.00 | 89 | 1021.4 |
| 20260902031627 | 52 | 198 | 0.0 | 0.0 | 0.00 | 0.00 | 0.00 | 89 | 1021.5 |
| 20260902031128 | 52 | 198 | 0.0 | 0.0 | 0.00 | 0.00 | 0.00 | 90 | 1021.4 |
| 20260902030625 | 52 | 198 | 0.0 | 0.0 | 0.00 | 0.00 | 0.00 | 89 | 1021.4 |
| 20260902030615 | 52 | 198 | 0.0 | 0.0 | 0.00 | 0.00 | 0.00 | 89 | 1021.4 |
| 20260902025623 | 52 | 198 | 0.0 | 0.0 | 0.00 | 0.00 | 0.00 | 89 | 1021.4 |
| 20260902025123 | 52 | 198 | 0.0 | 0.0 | 0.00 | 0.00 | 0.00 | 88 | 1021.6 |
| 20260902024623 | 52 | 198 | 0.0 | 0.0 | 0.00 | 0.00 | 0.00 | 88 | 1021.6 |
| 20260902024125 | 52 | 198 | 0.0 | 0.0 | 0.00 | 0.00 | 0.00 | 88 | 1021.5 |
| 20260902023621 | 52 | 198 | 0.0 | 0.0 | 0.00 | 0.00 | 0.00 | 88 | 1021.6 |
| 20260902023121 | 52 | 198 | 0.0 | 0.0 | 0.00 | 0.00 | 0.00 | 88 | 1021.5 |
| 20260902022622 | 53 | 198 | 0.0 | 0.0 | 0.00 | 0.00 | 0.00 | 88 | 1021.4 |
| 20260902022121 | 53 | 198 | 0.0 | 0.0 | 0.00 | 0.00 | 0.00 | 88 | 1021.5 |
| 20260902021619 | 53 | 198 | 0.0 | 0.0 | 0.00 | 0.00 | 0.00 | 88 | 1021.3 |
| 20260902021114 | 53 | 198 | 0.0 | 0.0 | 0.00 | 0.00 | 0.00 | 87 | 1021.3 |
| 20260902020608 | 53 | 198 | 0.0 | 0.0 | 0.00 | 0.00 | 0.00 | 87 | 1021.5 |
| 20260902020039 | 53 | 198 | 0.0 | 0.0 | 0.00 | 0.00 | 0.00 | 87 | 1021.6 |
| 20260902015050 | 53 | 198 | 0.0 | 0.0 | 0.00 | 0.00 | 0.00 | 87 | 1021.5 |
| 20260902014544 | 53 | 198 | 0.0 | 0.0 | 0.00 | 0.00 | 0.00 | 87 | 1021.4 |
| 20260902014037 | 53 | 198 | 0.0 | 0.0 | 0.00 | 0.00 | 0.00 | 87 | 1021.3 |
| 20260902013532 | 53 | 198 | 0.0 | 0.0 | 0.00 | 0.00 | 0.00 | 87 | 1021.3 |
| 20260902013026 | 53 | 198 | 0.0 | 0.0 | 0.00 | 0.00 | 0.00 | 87 | 1021.4 |
| 20260902012520 | 54 | 198 | 0.0 | 0.0 | 0.00 | 0.00 | 0.00 | 87 | 1021.4 |
| 20260902012013 | 54 | 198 | 0.0 | 0.0 | 0.00 | 0.00 | 0.00 | 87 | 1021.5 |
| 20260902011508 | 54 | 198 | 0.0 | 0.0 | 0.00 | 0.00 | 0.00 | 86 | 1021.5 |
| 20260902011002 | 54 | 198 | 0.0 | 0.0 | 0.00 | 0.00 | 0.00 | 86 | 1021.6 |
| 20260902010456 | 54 | 198 | 0.0 | 0.0 | 0.00 | 0.00 | 0.00 | 86 | 1021.6 |
| 20260902005950 | 54 | 198 | 0.0 | 0.0 | 0.00 | 0.00 | 0.00 | 86 | 1021.6 |
| 20260902005444 | 54 | 198 | 0.0 | 0.0 | 0.00 | 0.00 | 0.00 | 87 | 1021.6 |
| 20260902004938 | 54 | 198 | 0.0 | 0.0 | 0.00 | 0.00 | 0.00 | 86 | 1021.6 |
| 20260902004431 | 54 | 198 | 0.0 | 0.0 | 0.00 | 0.00 | 0.00 | 85 | 1021.7 |
| 20260902003926 | 55 | 198 | 0.0 | 0.0 | 0.00 | 0.00 | 0.00 | 86 | 1021.7 |
| 20260902003420 | 55 | 198 | 0.0 | 0.0 | 0.00 | 0.00 | 0.00 | 86 | 1021.8 |
| 20260902002914 | 55 | 198 | 0.0 | 0.0 | 0.00 | 0.00 | 0.00 | 85 | 1021.8 |
| 20260902002851 | 55 | 198 | 0.0 | 0.0 | 0.00 | 0.00 | 0.00 | 85 | 1021.9 |
| 20260902001903 | 55 | 198 | 0.0 | 0.0 | 0.00 | 0.00 | 0.00 | 85 | 1021.8 |
| 20260902001356 | 55 | 198 | 0.0 | 0.0 | 0.00 | 0.00 | 0.00 | 85 | 1021.8 |
| 20260902000849 | 55 | 198 | 0.0 | 0.0 | 0.00 | 0.00 | 0.00 | 85 | 1021.9 |
| 20260902000344 | 55 | 198 | 0.0 | 0.0 | 0.00 | 0.00 | 0.00 | 85 | 1021.8 |
| 20260901235838 | 55 | 198 | 0.0 | 0.0 | 0.00 | 0.00 | 0.00 | 84 | 1021.7 |
| 20260901235332 | 56 | 198 | 0.0 | 0.0 | 0.00 | 0.00 | 0.00 | 84 | 1021.8 |
| 20260901234826 | 56 | 198 | 0.0 | 0.0 | 0.00 | 0.00 | 0.00 | 84 | 1021.8 |
| 20260901234320 | 56 | 198 | 0.0 | 0.0 | 0.00 | 0.00 | 0.00 | 84 | 1021.8 |
| 20260901233814 | 56 | 198 | 0.0 | 0.0 | 0.00 | 0.00 | 0.00 | 84 | 1021.8 |
| 20260901233308 | 56 | 198 | 0.0 | 0.0 | 0.00 | 0.00 | 0.00 | 83 | 1021.8 |
| 20260901232801 | 56 | 198 | 0.0 | 0.0 | 0.00 | 0.00 | 0.00 | 83 | 1021.8 |
| 20260901232256 | 56 | 198 | 0.0 | 0.0 | 0.00 | 0.00 | 0.00 | 83 | 1021.8 |
| 20260901232241 | 56 | 198 | 0.0 | 0.0 | 0.00 | 0.00 | 0.00 | 83 | 1021.8 |
| 20260901231251 | 56 | 198 | 0.0 | 0.0 | 0.00 | 0.00 | 0.00 | 82 | 1021.8 |
| 20260901230753 | 57 | 198 | 0.0 | 0.0 | 0.00 | 0.00 | 0.00 | 83 | 1021.8 |
| 20260901230249 | 57 | 198 | 0.0 | 0.0 | 0.00 | 0.00 | 0.00 | 82 | 1021.8 |
| 20260901225749 | 57 | 198 | 0.0 | 0.0 | 0.00 | 0.00 | 0.00 | 81 | 1021.8 |
| 20260901225245 | 57 | 198 | 0.0 | 0.0 | 0.00 | 0.00 | 0.00 | 81 | 1021.8 |
| 20260901224743 | 57 | 198 | 0.0 | 0.0 | 0.00 | 0.00 | 0.00 | 81 | 1021.7 |
| 20260901224726 | 57 | 198 | 0.0 | 0.0 | 0.00 | 0.00 | 0.00 | 80 | 1021.8 |
| 20260901223739 | 58 | 198 | 0.0 | 0.0 | 0.00 | 0.00 | 0.00 | 81 | 1021.7 |
| 20260901223238 | 58 | 198 | 0.0 | 0.0 | 0.00 | 0.00 | 0.00 | 80 | 1021.8 |
| 20260901222737 | 58 | 198 | 0.0 | 0.0 | 0.00 | 0.00 | 0.00 | 79 | 1021.7 |
| 20260901222238 | 58 | 198 | 0.0 | 0.0 | 0.00 | 0.00 | 0.00 | 79 | 1021.7 |
| 20260901221737 | 58 | 198 | 0.0 | 0.0 | 0.00 | 0.00 | 0.00 | 78 | 1021.6 |
| 20260901221236 | 58 | 198 | 0.0 | 0.0 | 0.00 | 0.00 | 0.00 | 78 | 1021.7 |
| 20260901220734 | 58 | 198 | 0.0 | 0.0 | 0.00 | 0.00 | 0.00 | 77 | 1021.8 |
| 20260901220233 | 58 | 198 | 0.0 | 0.0 | 0.00 | 0.00 | 0.00 | 77 | 1021.6 |
| 20260901215733 | 59 | 198 | 0.0 | 0.0 | 0.00 | 0.00 | 0.00 | 76 | 1021.6 |
| 20260901215233 | 59 | 198 | 0.0 | 0.0 | 0.00 | 0.00 | 0.00 | 76 | 1021.6 |
| 20260901214731 | 59 | 198 | 0.0 | 0.0 | 0.00 | 0.00 | 0.00 | 77 | 1021.5 |
| 20260901214231 | 59 | 198 | 0.0 | 0.0 | 0.00 | 0.00 | 0.00 | 78 | 1021.6 |
| 20260901213730 | 59 | 198 | 0.0 | 0.0 | 0.00 | 0.00 | 0.00 | 77 | 1021.6 |
| 20260901213224 | 60 | 198 | 0.0 | 0.0 | 0.00 | 0.00 | 0.00 | 76 | 1021.6 |
| 20260901212719 | 60 | 198 | 0.0 | 0.0 | 0.00 | 0.00 | 0.00 | 75 | 1021.7 |
| 20260901212212 | 60 | 198 | 0.0 | 0.0 | 0.00 | 0.00 | 0.00 | 74 | 1021.5 |
| 20260901212204 | 60 | 198 | 0.0 | 0.0 | 0.00 | 0.00 | 0.00 | 75 | 1021.6 |
| 20260901211200 | 61 | 198 | 0.0 | 0.0 | 0.00 | 0.00 | 0.00 | 75 | 1021.6 |
| 20260901210654 | 61 | 198 | 0.0 | 0.0 | 0.00 | 0.00 | 0.00 | 74 | 1021.6 |
| 20260901210148 | 61 | 198 | 0.0 | 0.0 | 0.00 | 0.00 | 0.00 | 74 | 1021.6 |
| 20260901205642 | 61 | 198 | 0.0 | 0.0 | 0.00 | 0.00 | 0.00 | 73 | 1021.7 |
| 20260901205135 | 62 | 198 | 0.0 | 0.0 | 0.00 | 0.00 | 0.00 | 72 | 1021.8 |
| 20260901205108 | 62 | 198 | 0.0 | 0.0 | 0.00 | 0.00 | 0.00 | 72 | 1021.7 |
| 20260901204124 | 62 | 198 | 0.0 | 0.0 | 0.00 | 0.00 | 0.00 | 71 | 1021.7 |
| 20260901203619 | 62 | 198 | 0.0 | 0.0 | 0.00 | 0.00 | 0.00 | 72 | 1021.8 |
| 20260901203112 | 62 | 198 | 0.0 | 0.0 | 0.00 | 0.00 | 0.00 | 72 | 1021.8 |
| 20260901202607 | 63 | 198 | 0.0 | 0.0 | 0.00 | 0.00 | 0.00 | 71 | 1021.8 |
| 20260901202100 | 63 | 198 | 0.0 | 0.0 | 0.00 | 0.00 | 0.00 | 71 | 1021.8 |
| 20260901201554 | 63 | 198 | 0.0 | 0.0 | 0.00 | 0.00 | 0.00 | 70 | 1021.7 |
| 20260901201048 | 63 | 198 | 0.0 | 0.0 | 0.00 | 0.00 | 0.00 | 69 | 1021.7 |
| 20260901200542 | 64 | 198 | 0.0 | 0.0 | 0.00 | 0.00 | 0.00 | 68 | 1021.7 |
| 20260901200036 | 64 | 198 | 0.0 | 0.9 | 0.00 | 0.00 | 0.00 | 66 | 1021.6 |
| 20260901195529 | 64 | 198 | 0.0 | 4.3 | 0.00 | 0.00 | 0.00 | 67 | 1021.6 |
| 20260901195248 | 64 | 198 | 0.9 | 4.3 | 0.00 | 0.00 | 0.00 | 66 | 1021.5 |
| 20260901194518 | 64 | 215 | 0.0 | 1.7 | 0.00 | 0.00 | 0.00 | 66 | 1021.4 |
| 20260901194012 | 64 | 224 | 0.0 | 0.0 | 0.00 | 0.00 | 0.00 | 66 | 1021.4 |
| 20260901193506 | 65 | 224 | 0.0 | 0.0 | 0.00 | 0.00 | 0.00 | 65 | 1021.4 |
| 20260901193000 | 65 | 224 | 0.0 | 0.0 | 0.00 | 0.00 | 0.00 | 66 | 1021.4 |
| 20260901192932 | 65 | 224 | 0.0 | 0.0 | 0.00 | 0.00 | 0.00 | 65 | 1021.5 |
| 20260901191948 | 65 | 224 | 0.0 | 0.0 | 0.00 | 0.00 | 0.00 | 64 | 1021.4 |
| 20260901191934 | 65 | 224 | 0.0 | 0.0 | 0.00 | 0.00 | 0.00 | 63 | 1021.4 |
| 20260901190936 | 66 | 224 | 0.0 | 0.0 | 0.00 | 0.00 | 0.00 | 63 | 1021.3 |
| 20260901190430 | 66 | 224 | 0.0 | 0.9 | 0.00 | 0.00 | 0.00 | 63 | 1021.4 |
| 20260901185924 | 67 | 224 | 0.0 | 0.9 | 0.00 | 0.00 | 0.00 | 61 | 1021.3 |
| 20260901185418 | 67 | 224 | 0.0 | 1.7 | 0.00 | 0.00 | 0.00 | 61 | 1021.2 |
| 20260901184912 | 67 | 224 | 0.0 | 1.7 | 0.00 | 0.00 | 0.00 | 60 | 1021.2 |
| 20260901184406 | 68 | 224 | 0.0 | 1.7 | 0.00 | 0.00 | 0.00 | 59 | 1021.2 |
| 20260901183900 | 68 | 224 | 0.0 | 1.7 | 0.00 | 0.00 | 0.00 | 59 | 1021.2 |
| 20260901183354 | 69 | 224 | 0.0 | 1.7 | 0.00 | 0.00 | 0.00 | 59 | 1021.1 |
| 20260901182848 | 69 | 224 | 0.0 | 1.7 | 0.00 | 0.00 | 0.00 | 57 | 1020.9 |
| 20260901182343 | 70 | 268 | 0.0 | 0.9 | 0.00 | 0.00 | 0.00 | 57 | 1020.9 |
| 20260901181836 | 71 | 269 | 0.0 | 0.0 | 0.00 | 0.00 | 0.00 | 56 | 1020.9 |
| 20260901181330 | 71 | 269 | 0.0 | 0.0 | 0.00 | 0.00 | 0.00 | 54 | 1020.8 |
| 20260901180824 | 72 | 269 | 0.0 | 0.0 | 0.00 | 0.00 | 0.00 | 53 | 1020.7 |
| 20260901180318 | 73 | 269 | 0.0 | 0.0 | 0.00 | 0.00 | 0.00 | 53 | 1020.7 |
| 20260901175812 | 73 | 269 | 0.0 | 0.0 | 0.00 | 0.00 | 0.00 | 52 | 1020.7 |
| 20260901175306 | 74 | 269 | 0.0 | 0.0 | 0.00 | 0.00 | 0.00 | 52 | 1020.7 |
| 20260901175244 | 74 | 269 | 0.0 | 0.0 | 0.00 | 0.00 | 0.00 | 50 | 1020.7 |
| 20260901174255 | 75 | 269 | 0.0 | 0.0 | 0.00 | 0.00 | 0.00 | 48 | 1020.7 |
| 20260901173242 | 76 | 269 | 0.0 | 0.0 | 0.00 | 0.00 | 0.00 | 50 | 1020.6 |
| 20260901173222 | 76 | 269 | 0.0 | 0.0 | 0.00 | 0.00 | 0.00 | 50 | 1020.7 |
| 20260901172230 | 76 | 269 | 0.0 | 0.9 | 0.00 | 0.00 | 0.00 | 47 | 1020.6 |
| 20260901172204 | 76 | 269 | 0.0 | 1.7 | 0.00 | 0.00 | 0.00 | 45 | 1020.6 |
| 20260901171218 | 77 | 269 | 0.0 | 1.7 | 0.00 | 0.00 | 0.00 | 44 | 1020.5 |
| 20260901171204 | 77 | 269 | 0.0 | 1.7 | 0.00 | 0.00 | 0.00 | 44 | 1020.5 |
| 20260901170206 | 77 | 269 | 0.0 | 1.7 | 0.00 | 0.00 | 0.00 | 43 | 1020.6 |
| 20260901165700 | 78 | 269 | 0.0 | 0.9 | 0.00 | 0.00 | 0.00 | 45 | 1020.6 |
| 20260901165154 | 77 | 269 | 0.0 | 0.0 | 0.00 | 0.00 | 0.00 | 45 | 1020.6 |
| 20260901164648 | 77 | 269 | 0.0 | 0.9 | 0.00 | 0.00 | 0.00 | 45 | 1020.7 |
| 20260901164148 | 77 | 269 | 0.0 | 0.9 | 0.00 | 0.00 | 0.00 | 46 | 1020.7 |
| 20260901164129 | 77 | 269 | 0.0 | 1.7 | 0.00 | 0.00 | 0.00 | 45 | 1020.7 |
| 20260901163145 | 77 | 269 | 0.0 | 1.7 | 0.00 | 0.00 | 0.00 | 44 | 1020.8 |
| 20260901162646 | 77 | 268 | 0.0 | 3.5 | 0.00 | 0.00 | 0.00 | 45 | 1020.7 |
| 20260901162143 | 77 | 268 | 0.0 | 3.5 | 0.00 | 0.00 | 0.00 | 44 | 1020.6 |
| 20260901161644 | 77 | 269 | 0.9 | 5.2 | 0.00 | 0.00 | 0.00 | 42 | 1020.6 |
| 20260901161144 | 77 | 267 | 0.9 | 5.2 | 0.00 | 0.00 | 0.00 | 41 | 1020.7 |
| 20260901160644 | 77 | 274 | 0.9 | 5.2 | 0.00 | 0.00 | 0.00 | 43 | 1020.7 |
| 20260901160142 | 77 | 283 | 0.0 | 3.5 | 0.00 | 0.00 | 0.00 | 44 | 1020.7 |
| 20260901155642 | 77 | 282 | 0.0 | 4.3 | 0.00 | 0.00 | 0.00 | 43 | 1020.6 |
| 20260901155140 | 77 | 282 | 0.9 | 4.3 | 0.00 | 0.00 | 0.00 | 42 | 1020.6 |
| 20260901155119 | 78 | 24 | 0.0 | 3.5 | 0.00 | 0.00 | 0.00 | 42 | 1020.7 |
| 20260901154142 | 78 | 296 | 0.0 | 3.5 | 0.00 | 0.00 | 0.00 | 42 | 1020.7 |
| 20260901153641 | 78 | 296 | 0.9 | 4.3 | 0.00 | 0.00 | 0.00 | 42 | 1020.7 |
| 20260901153407 | 78 | 274 | 0.9 | 6.1 | 0.00 | 0.00 | 0.00 | 42 | 1020.7 |
| 20260901152639 | 78 | 273 | 0.9 | 6.1 | 0.00 | 0.00 | 0.00 | 42 | 1020.8 |
| 20260901152137 | 78 | 255 | 0.0 | 2.6 | 0.00 | 0.00 | 0.00 | 41 | 1020.7 |
| 20260901151636 | 78 | 255 | 0.9 | 4.3 | 0.00 | 0.00 | 0.00 | 42 | 1020.8 |
| 20260901151136 | 78 | 254 | 0.9 | 4.3 | 0.00 | 0.00 | 0.00 | 42 | 1020.7 |
| 20260901150637 | 78 | 240 | 0.9 | 6.1 | 0.00 | 0.00 | 0.00 | 41 | 1020.7 |
| 20260901150137 | 78 | 279 | 0.9 | 6.1 | 0.00 | 0.00 | 0.00 | 42 | 1020.8 |
| 20260901145636 | 78 | 271 | 1.7 | 6.1 | 0.00 | 0.00 | 0.00 | 42 | 1020.7 |
| 20260901145448 | 78 | 274 | 1.7 | 6.1 | 0.00 | 0.00 | 0.00 | 42 | 1020.7 |
| 20260901145403 | 78 | 280 | 1.7 | 6.1 | 0.00 | 0.00 | 0.00 | 41 | 1020.8 |